Flight Briefing for CPX263

Departure Arrival
Washington Dulles International Airport (KIAD)
Click to view FAA NOTAMS
General Edward Lawrence Logan International Airport (KBOS)
Click to view FAA NOTAMS
Departure Time Arrival Time
N/A N/A
Aircraft Distance
B767-300BDSF 359nm
Departure METAR Arrival METAR
KIAD 180652Z 19008KT 10SM -RA BKN007 OVC050 02/01 A2980 RMK AO2 SLP093 P0005 T00220011 KBOS 180654Z 19005KT 1/2SM R04R/3500V5000FT SN FZFG VV006 M02/M03 A2999 RMK AO2 SLP154 P0010 T10171033
Suggested Route
JCOBY3 SWANN BROSS J42 RBV J222 JFK ROBUC3


View recent IFR Routes data
Notes

Charts and Procedures

Charts for KIAD
No chart available
Charts for KBOS
No chart available

Ventusky Weather